Leith, United Kingdom
Current Conditions -  °F | °C
As of 8:20 PM on Wednesday 28 Jan 2015 (Local Time) from EGPH Reporting Station
Scattered Clouds Scattered Clouds  
Wind Chill: 22°   Ceiling: Unl
Heat Index: 32°   Visibility: 6mi
Dew Point: 32°   Wind: 14mph
Humidity: 100%   Direction: 250°WSW
Pressure: 29.12"   Gusts: NA
Location:  55.97°N, 3.16°W
Report Text: EGPH 282020Z 25012KT 9999 FEW011 SCT022 00/M00 Q0986
Loading
Personal Weather Stations






























Interactive Weather Map New forecast layout! Learn more

10-Day Weather Forecast

Advertisements
Track Severe Weather on mobile